sensor_id;sensor_type;location;lat;lon;timestamp;pressure;altitude;pressure_sealevel;temperature;humidity
40794;BME280;26502;51.886;15.604;2023-04-28T00:03:50;101191.04;;;1.72;58.96
40794;BME280;26502;51.886;15.604;2023-04-28T00:08:56;101190.30;;;1.55;59.13
40794;BME280;26502;51.886;15.604;2023-04-28T00:14:02;101182.67;;;1.61;59.42
40794;BME280;26502;51.886;15.604;2023-04-28T00:19:09;101180.06;;;1.62;59.43
40794;BME280;26502;51.886;15.604;2023-04-28T00:24:15;101180.77;;;1.62;59.55
40794;BME280;26502;51.886;15.604;2023-04-28T00:29:21;101179.20;;;1.63;59.57
40794;BME280;26502;51.886;15.604;2023-04-28T00:34:27;101176.86;;;1.59;59.73
40794;BME280;26502;51.886;15.604;2023-04-28T00:39:38;101171.14;;;1.35;59.58
40794;BME280;26502;51.886;15.604;2023-04-28T00:44:45;101171.30;;;1.22;59.90
40794;BME280;26502;51.886;15.604;2023-04-28T00:49:52;101173.33;;;1.29;60.29
40794;BME280;26502;51.886;15.604;2023-04-28T00:54:58;101168.34;;;1.35;60.34
40794;BME280;26502;51.886;15.604;2023-04-28T01:00:06;101161.70;;;1.36;60.28
40794;BME280;26502;51.886;15.604;2023-04-28T01:05:13;101159.77;;;1.35;60.42
40794;BME280;26502;51.886;15.604;2023-04-28T01:10:21;101161.21;;;1.39;60.39
40794;BME280;26502;51.886;15.604;2023-04-28T01:15:27;101159.63;;;1.24;60.39
40794;BME280;26502;51.886;15.604;2023-04-28T01:20:34;101153.05;;;1.17;60.44
40794;BME280;26502;51.886;15.604;2023-04-28T01:25:41;101150.69;;;0.99;60.54
40794;BME280;26502;51.886;15.604;2023-04-28T01:30:48;101153.27;;;0.95;60.85
40794;BME280;26502;51.886;15.604;2023-04-28T01:35:57;101146.86;;;0.99;61.08
40794;BME280;26502;51.886;15.604;2023-04-28T01:41:04;101138.67;;;1.01;61.16
40794;BME280;26502;51.886;15.604;2023-04-28T01:46:11;101136.41;;;1.02;61.15
40794;BME280;26502;51.886;15.604;2023-04-28T01:51:17;101129.55;;;1.00;61.29
40794;BME280;26502;51.886;15.604;2023-04-28T01:56:24;101131.80;;;0.99;61.52
40794;BME280;26502;51.886;15.604;2023-04-28T02:01:34;101124.15;;;1.01;61.66
40794;BME280;26502;51.886;15.604;2023-04-28T02:06:40;101127.66;;;1.02;61.71
40794;BME280;26502;51.886;15.604;2023-04-28T02:11:46;101125.23;;;1.05;61.72
40794;BME280;26502;51.886;15.604;2023-04-28T02:16:53;101120.05;;;0.96;61.83
40794;BME280;26502;51.886;15.604;2023-04-28T02:21:59;101119.06;;;0.87;61.93
40794;BME280;26502;51.886;15.604;2023-04-28T02:27:05;101116.86;;;0.81;62.19
40794;BME280;26502;51.886;15.604;2023-04-28T02:32:12;101116.14;;;0.91;62.31
40794;BME280;26502;51.886;15.604;2023-04-28T02:37:18;101118.06;;;0.91;62.16
40794;BME280;26502;51.886;15.604;2023-04-28T02:42:27;101120.01;;;0.92;62.38
40794;BME280;26502;51.886;15.604;2023-04-28T02:47:34;101125.58;;;0.91;62.40
40794;BME280;26502;51.886;15.604;2023-04-28T02:52:41;101123.55;;;0.84;62.07
40794;BME280;26502;51.886;15.604;2023-04-28T02:57:47;101117.52;;;0.79;62.47
40794;BME280;26502;51.886;15.604;2023-04-28T03:02:54;101118.79;;;0.81;62.57
40794;BME280;26502;51.886;15.604;2023-04-28T03:08:00;101118.66;;;0.84;62.86
40794;BME280;26502;51.886;15.604;2023-04-28T03:13:06;101113.98;;;0.75;62.71
40794;BME280;26502;51.886;15.604;2023-04-28T03:18:13;101110.19;;;0.67;62.92
40794;BME280;26502;51.886;15.604;2023-04-28T03:23:22;101109.90;;;0.71;63.28
40794;BME280;26502;51.886;15.604;2023-04-28T03:28:29;101102.04;;;0.83;63.31
40794;BME280;26502;51.886;15.604;2023-04-28T03:33:37;101100.86;;;0.88;63.30
40794;BME280;26502;51.886;15.604;2023-04-28T03:38:44;101091.31;;;0.92;63.47
40794;BME280;26502;51.886;15.604;2023-04-28T03:43:50;101082.13;;;0.99;63.51
40794;BME280;26502;51.886;15.604;2023-04-28T03:49:02;101084.82;;;1.04;63.68
40794;BME280;26502;51.886;15.604;2023-04-28T03:54:09;101084.59;;;1.12;63.77
40794;BME280;26502;51.886;15.604;2023-04-28T03:59:15;101077.48;;;1.18;63.81
40794;BME280;26502;51.886;15.604;2023-04-28T04:04:23;101075.70;;;1.30;63.97
40794;BME280;26502;51.886;15.604;2023-04-28T04:09:31;101070.52;;;1.36;63.98
40794;BME280;26502;51.886;15.604;2023-04-28T04:14:37;101069.76;;;1.46;64.32
40794;BME280;26502;51.886;15.604;2023-04-28T04:19:44;101073.02;;;1.55;64.43
40794;BME280;26502;51.886;15.604;2023-04-28T04:24:51;101075.09;;;1.69;64.58
40794;BME280;26502;51.886;15.604;2023-04-28T04:29:57;101072.92;;;1.81;64.79
40794;BME280;26502;51.886;15.604;2023-04-28T04:35:05;101073.73;;;1.91;64.94
40794;BME280;26502;51.886;15.604;2023-04-28T04:40:13;101074.69;;;2.00;64.94
40794;BME280;26502;51.886;15.604;2023-04-28T04:45:23;101077.09;;;2.15;65.15
40794;BME280;26502;51.886;15.604;2023-04-28T04:50:31;101067.58;;;2.32;65.35
40794;BME280;26502;51.886;15.604;2023-04-28T04:55:38;101059.09;;;2.46;65.40
40794;BME280;26502;51.886;15.604;2023-04-28T05:00:45;101064.65;;;2.64;65.45
40794;BME280;26502;51.886;15.604;2023-04-28T05:05:52;101059.16;;;2.86;65.60
40794;BME280;26502;51.886;15.604;2023-04-28T05:11:08;101059.10;;;3.08;65.63
40794;BME280;26502;51.886;15.604;2023-04-28T05:16:15;101052.34;;;3.29;65.78
40794;BME280;26502;51.886;15.604;2023-04-28T05:21:45;101046.59;;;3.48;65.81
40794;BME280;26502;51.886;15.604;2023-04-28T05:26:53;101037.67;;;3.61;65.74
40794;BME280;26502;51.886;15.604;2023-04-28T05:31:59;101033.83;;;3.83;65.52
40794;BME280;26502;51.886;15.604;2023-04-28T05:37:18;101028.92;;;4.13;65.66
40794;BME280;26502;51.886;15.604;2023-04-28T05:42:24;101025.01;;;4.50;65.71
40794;BME280;26502;51.886;15.604;2023-04-28T05:47:31;101025.42;;;4.93;65.86
40794;BME280;26502;51.886;15.604;2023-04-28T05:52:37;101020.17;;;5.27;65.67
40794;BME280;26502;51.886;15.604;2023-04-28T05:57:44;101015.25;;;5.56;65.46
40794;BME280;26502;51.886;15.604;2023-04-28T06:02:50;101009.18;;;5.93;65.14
40794;BME280;26502;51.886;15.604;2023-04-28T06:07:57;101009.92;;;6.30;64.94
40794;BME280;26502;51.886;15.604;2023-04-28T06:13:03;101007.92;;;6.70;64.34
40794;BME280;26502;51.886;15.604;2023-04-28T06:18:10;101003.41;;;7.08;63.78
40794;BME280;26502;51.886;15.604;2023-04-28T06:23:16;100998.30;;;7.47;63.26
40794;BME280;26502;51.886;15.604;2023-04-28T06:28:25;100994.99;;;7.79;62.83
40794;BME280;26502;51.886;15.604;2023-04-28T06:33:31;100989.26;;;8.05;62.31
40794;BME280;26502;51.886;15.604;2023-04-28T06:38:38;100983.42;;;8.35;61.96
40794;BME280;26502;51.886;15.604;2023-04-28T06:43:44;100981.98;;;8.56;61.27
40794;BME280;26502;51.886;15.604;2023-04-28T06:48:59;100976.20;;;8.81;60.77
40794;BME280;26502;51.886;15.604;2023-04-28T06:54:06;100972.61;;;9.09;60.51
40794;BME280;26502;51.886;15.604;2023-04-28T06:59:12;100965.31;;;9.42;60.18
40794;BME280;26502;51.886;15.604;2023-04-28T07:04:19;100961.63;;;9.63;59.65
40794;BME280;26502;51.886;15.604;2023-04-28T07:09:25;100958.38;;;9.80;59.21
40794;BME280;26502;51.886;15.604;2023-04-28T07:14:31;100955.41;;;10.06;58.92
40794;BME280;26502;51.886;15.604;2023-04-28T07:19:38;100946.16;;;10.27;58.41
40794;BME280;26502;51.886;15.604;2023-04-28T07:24:44;100937.83;;;10.48;58.15
40794;BME280;26502;51.886;15.604;2023-04-28T07:29:50;100920.58;;;10.85;57.80
40794;BME280;26502;51.886;15.604;2023-04-28T07:34:57;100914.35;;;11.20;57.24
40794;BME280;26502;51.886;15.604;2023-04-28T07:40:04;100908.54;;;11.25;56.11
40794;BME280;26502;51.886;15.604;2023-04-28T07:45:11;100903.05;;;11.46;55.79
40794;BME280;26502;51.886;15.604;2023-04-28T07:50:18;100897.48;;;11.54;54.59
40794;BME280;26502;51.886;15.604;2023-04-28T07:55:24;100896.04;;;11.81;54.37
40794;BME280;26502;51.886;15.604;2023-04-28T08:00:30;100889.59;;;12.14;53.74
40794;BME280;26502;51.886;15.604;2023-04-28T08:05:36;100887.12;;;12.43;53.01
40794;BME280;26502;51.886;15.604;2023-04-28T08:10:43;100881.52;;;12.64;52.58
40794;BME280;26502;51.886;15.604;2023-04-28T08:15:49;100878.70;;;12.81;52.15
40794;BME280;26502;51.886;15.604;2023-04-28T08:20:55;100877.23;;;13.01;51.83
40794;BME280;26502;51.886;15.604;2023-04-28T08:26:02;100868.14;;;12.92;50.39
40794;BME280;26502;51.886;15.604;2023-04-28T08:31:09;100858.59;;;12.81;50.00
40794;BME280;26502;51.886;15.604;2023-04-28T08:36:15;100848.85;;;13.02;49.35
40794;BME280;26502;51.886;15.604;2023-04-28T08:41:22;100851.02;;;13.24;48.89
40794;BME280;26502;51.886;15.604;2023-04-28T08:46:30;100850.14;;;13.71;48.66
40794;BME280;26502;51.886;15.604;2023-04-28T08:51:45;100844.33;;;13.99;48.43
40794;BME280;26502;51.886;15.604;2023-04-28T08:56:52;100832.88;;;14.31;48.20
40794;BME280;26502;51.886;15.604;2023-04-28T09:01:59;100820.67;;;14.60;48.14
40794;BME280;26502;51.886;15.604;2023-04-28T09:07:11;100819.18;;;14.81;47.51
40794;BME280;26502;51.886;15.604;2023-04-28T09:12:18;100810.95;;;14.77;46.88
40794;BME280;26502;51.886;15.604;2023-04-28T09:17:25;100805.20;;;14.92;46.67
40794;BME280;26502;51.886;15.604;2023-04-28T09:22:31;100798.02;;;15.00;46.17
40794;BME280;26502;51.886;15.604;2023-04-28T09:27:39;100802.11;;;15.22;45.57
40794;BME280;26502;51.886;15.604;2023-04-28T09:32:45;100798.81;;;15.56;45.45
40794;BME280;26502;51.886;15.604;2023-04-28T09:38:09;100793.44;;;15.49;43.87
40794;BME280;26502;51.886;15.604;2023-04-28T09:43:23;100785.34;;;15.21;42.88
40794;BME280;26502;51.886;15.604;2023-04-28T09:48:31;100773.64;;;15.76;43.51
40794;BME280;26502;51.886;15.604;2023-04-28T09:53:37;100765.91;;;16.00;43.24
40794;BME280;26502;51.886;15.604;2023-04-28T09:58:46;100767.83;;;16.05;42.57
40794;BME280;26502;51.886;15.604;2023-04-28T10:03:53;100752.91;;;15.78;42.01
40794;BME280;26502;51.886;15.604;2023-04-28T10:08:59;100747.91;;;15.54;42.02
40794;BME280;26502;51.886;15.604;2023-04-28T10:14:06;100743.66;;;15.36;41.78
40794;BME280;26502;51.886;15.604;2023-04-28T10:19:13;100738.11;;;15.66;42.29
40794;BME280;26502;51.886;15.604;2023-04-28T10:24:24;100728.77;;;16.02;42.53
40794;BME280;26502;51.886;15.604;2023-04-28T10:29:35;100723.02;;;16.25;42.27
40794;BME280;26502;51.886;15.604;2023-04-28T10:34:41;100710.47;;;16.41;42.02
40794;BME280;26502;51.886;15.604;2023-04-28T10:51:21;100688.33;;;17.35;41.35
40794;BME280;26502;51.886;15.604;2023-04-28T10:56:29;100684.09;;;17.40;40.85
40794;BME280;26502;51.886;15.604;2023-04-28T11:01:35;100675.85;;;17.52;40.84
40794;BME280;26502;51.886;15.604;2023-04-28T11:06:45;100673.37;;;17.60;40.31
40794;BME280;26502;51.886;15.604;2023-04-28T11:12:06;100665.30;;;17.51;39.92
40794;BME280;26502;51.886;15.604;2023-04-28T11:17:14;100656.60;;;17.75;39.76
40794;BME280;26502;51.886;15.604;2023-04-28T11:22:23;100651.44;;;17.95;39.68
40794;BME280;26502;51.886;15.604;2023-04-28T11:27:30;100649.54;;;17.85;38.87
40794;BME280;26502;51.886;15.604;2023-04-28T11:32:37;100653.83;;;17.39;38.72
40794;BME280;26502;51.886;15.604;2023-04-28T11:37:45;100644.56;;;17.61;38.84
40794;BME280;26502;51.886;15.604;2023-04-28T11:42:51;100643.19;;;17.55;38.50
40794;BME280;26502;51.886;15.604;2023-04-28T11:47:57;100638.33;;;17.75;38.62
40794;BME280;26502;51.886;15.604;2023-04-28T11:53:09;100638.15;;;17.74;38.91
40794;BME280;26502;51.886;15.604;2023-04-28T11:58:19;100630.80;;;17.91;38.82
40794;BME280;26502;51.886;15.604;2023-04-28T12:03:27;100619.14;;;17.88;38.69
40794;BME280;26502;51.886;15.604;2023-04-28T12:08:33;100618.70;;;18.37;38.29
40794;BME280;26502;51.886;15.604;2023-04-28T12:13:40;100618.19;;;18.37;37.36
40794;BME280;26502;51.886;15.604;2023-04-28T12:18:58;100608.56;;;18.68;37.95
40794;BME280;26502;51.886;15.604;2023-04-28T12:24:19;100604.34;;;19.07;37.89
40794;BME280;26502;51.886;15.604;2023-04-28T12:29:39;100598.80;;;19.24;37.44
40794;BME280;26502;51.886;15.604;2023-04-28T12:34:46;100595.51;;;19.35;37.61
40794;BME280;26502;51.886;15.604;2023-04-28T12:39:54;100586.65;;;19.48;37.45
40794;BME280;26502;51.886;15.604;2023-04-28T12:45:01;100579.08;;;19.56;37.29
40794;BME280;26502;51.886;15.604;2023-04-28T12:50:08;100569.34;;;19.77;37.22
40794;BME280;26502;51.886;15.604;2023-04-28T12:55:15;100567.75;;;20.01;36.42
40794;BME280;26502;51.886;15.604;2023-04-28T13:00:22;100556.39;;;19.96;36.56
40794;BME280;26502;51.886;15.604;2023-04-28T13:05:28;100548.09;;;20.09;36.01
40794;BME280;26502;51.886;15.604;2023-04-28T13:10:36;100543.32;;;19.73;35.27
40794;BME280;26502;51.886;15.604;2023-04-28T13:15:42;100539.82;;;19.96;35.55
40794;BME280;26502;51.886;15.604;2023-04-28T13:20:50;100535.50;;;20.18;35.30
40794;BME280;26502;51.886;15.604;2023-04-28T13:25:56;100524.92;;;20.12;34.99
40794;BME280;26502;51.886;15.604;2023-04-28T13:31:03;100518.43;;;20.17;34.54
40794;BME280;26502;51.886;15.604;2023-04-28T13:36:09;100508.28;;;20.23;34.52
40794;BME280;26502;51.886;15.604;2023-04-28T13:41:16;100507.77;;;20.20;33.76
40794;BME280;26502;51.886;15.604;2023-04-28T13:46:23;100508.71;;;20.17;34.05
40794;BME280;26502;51.886;15.604;2023-04-28T13:51:30;100497.17;;;20.31;34.15
40794;BME280;26502;51.886;15.604;2023-04-28T13:56:37;100498.89;;;20.23;33.67
40794;BME280;26502;51.886;15.604;2023-04-28T14:01:44;100492.70;;;19.72;33.57
40794;BME280;26502;51.886;15.604;2023-04-28T14:06:50;100482.57;;;19.33;33.84
40794;BME280;26502;51.886;15.604;2023-04-28T14:11:57;100482.16;;;18.96;33.59
40794;BME280;26502;51.886;15.604;2023-04-28T14:17:05;100476.02;;;18.73;34.14
40794;BME280;26502;51.886;15.604;2023-04-28T14:22:11;100468.46;;;18.70;34.25
40794;BME280;26502;51.886;15.604;2023-04-28T14:27:18;100466.80;;;18.74;34.53
40794;BME280;26502;51.886;15.604;2023-04-28T14:32:25;100466.75;;;18.69;34.27
40794;BME280;26502;51.886;15.604;2023-04-28T14:37:33;100466.16;;;18.49;34.51
40794;BME280;26502;51.886;15.604;2023-04-28T14:42:39;100461.79;;;18.29;34.15
40794;BME280;26502;51.886;15.604;2023-04-28T14:47:46;100455.41;;;18.09;34.62
40794;BME280;26502;51.886;15.604;2023-04-28T14:52:52;100453.30;;;18.13;34.90
40794;BME280;26502;51.886;15.604;2023-04-28T14:57:58;100454.02;;;18.03;35.06
40794;BME280;26502;51.886;15.604;2023-04-28T15:03:05;100453.79;;;17.84;35.13
40794;BME280;26502;51.886;15.604;2023-04-28T15:08:11;100452.52;;;17.57;35.17
40794;BME280;26502;51.886;15.604;2023-04-28T15:13:17;100447.70;;;17.37;35.41
40794;BME280;26502;51.886;15.604;2023-04-28T15:18:24;100445.33;;;17.26;35.65
40794;BME280;26502;51.886;15.604;2023-04-28T15:23:30;100449.08;;;17.24;36.00
40794;BME280;26502;51.886;15.604;2023-04-28T15:28:36;100442.52;;;17.20;36.03
40794;BME280;26502;51.886;15.604;2023-04-28T15:33:43;100438.53;;;17.23;36.27
40794;BME280;26502;51.886;15.604;2023-04-28T15:38:50;100442.17;;;17.11;36.60
40794;BME280;26502;51.886;15.604;2023-04-28T15:43:57;100432.66;;;16.94;36.69
40794;BME280;26502;51.886;15.604;2023-04-28T15:49:05;100432.27;;;16.92;37.56
40794;BME280;26502;51.886;15.604;2023-04-28T15:54:11;100429.80;;;16.88;38.05
40794;BME280;26502;51.886;15.604;2023-04-28T15:59:18;100432.73;;;16.69;38.50
40794;BME280;26502;51.886;15.604;2023-04-28T16:04:25;100428.70;;;16.65;39.19
40794;BME280;26502;51.886;15.604;2023-04-28T16:09:32;100427.98;;;16.56;39.72
40794;BME280;26502;51.886;15.604;2023-04-28T16:14:38;100424.48;;;16.49;40.68
40794;BME280;26502;51.886;15.604;2023-04-28T16:19:45;100422.84;;;16.38;41.89
40794;BME280;26502;51.886;15.604;2023-04-28T16:24:51;100421.39;;;16.20;42.83
40794;BME280;26502;51.886;15.604;2023-04-28T16:29:58;100423.73;;;16.05;42.90
40794;BME280;26502;51.886;15.604;2023-04-28T16:35:05;100417.20;;;15.94;43.49
40794;BME280;26502;51.886;15.604;2023-04-28T16:40:14;100419.23;;;15.84;43.76
40794;BME280;26502;51.886;15.604;2023-04-28T16:45:21;100413.09;;;15.72;44.51
40794;BME280;26502;51.886;15.604;2023-04-28T16:50:27;100407.94;;;15.65;44.48
40794;BME280;26502;51.886;15.604;2023-04-28T16:55:34;100400.02;;;15.59;45.29
40794;BME280;26502;51.886;15.604;2023-04-28T17:00:41;100402.80;;;15.54;46.03
40794;BME280;26502;51.886;15.604;2023-04-28T17:05:47;100397.30;;;15.47;46.43
40794;BME280;26502;51.886;15.604;2023-04-28T17:10:53;100391.80;;;15.40;46.91
40794;BME280;26502;51.886;15.604;2023-04-28T17:16:00;100389.79;;;15.41;47.41
40794;BME280;26502;51.886;15.604;2023-04-28T17:21:07;100384.45;;;15.34;47.29
40794;BME280;26502;51.886;15.604;2023-04-28T17:26:15;100385.41;;;15.30;47.83
40794;BME280;26502;51.886;15.604;2023-04-28T17:31:21;100382.13;;;15.28;47.80
40794;BME280;26502;51.886;15.604;2023-04-28T17:36:27;100380.35;;;15.21;47.95
40794;BME280;26502;51.886;15.604;2023-04-28T17:41:34;100380.63;;;15.04;48.11
40794;BME280;26502;51.886;15.604;2023-04-28T17:46:40;100369.39;;;15.03;48.65
40794;BME280;26502;51.886;15.604;2023-04-28T17:51:46;100369.89;;;15.13;48.89
40794;BME280;26502;51.886;15.604;2023-04-28T17:56:52;100373.30;;;15.10;49.26
40794;BME280;26502;51.886;15.604;2023-04-28T18:01:59;100370.45;;;15.13;49.58
40794;BME280;26502;51.886;15.604;2023-04-28T18:07:06;100367.68;;;15.08;49.81
40794;BME280;26502;51.886;15.604;2023-04-28T18:12:12;100373.58;;;15.08;49.72
40794;BME280;26502;51.886;15.604;2023-04-28T18:17:19;100374.30;;;15.11;50.05
40794;BME280;26502;51.886;15.604;2023-04-28T18:22:29;100371.12;;;15.23;50.35
40794;BME280;26502;51.886;15.604;2023-04-28T18:27:35;100372.21;;;15.26;50.11
40794;BME280;26502;51.886;15.604;2023-04-28T18:32:42;100372.78;;;14.80;50.03
40794;BME280;26502;51.886;15.604;2023-04-28T18:37:48;100377.94;;;14.44;50.67
40794;BME280;26502;51.886;15.604;2023-04-28T18:42:57;100378.92;;;14.52;51.09
40794;BME280;26502;51.886;15.604;2023-04-28T18:48:05;100378.35;;;14.39;51.19
40794;BME280;26502;51.886;15.604;2023-04-28T18:53:12;100380.00;;;14.35;51.66
40794;BME280;26502;51.886;15.604;2023-04-28T18:58:19;100382.50;;;14.39;51.60
40794;BME280;26502;51.886;15.604;2023-04-28T19:03:25;100385.05;;;14.21;51.73
40794;BME280;26502;51.886;15.604;2023-04-28T19:08:32;100391.42;;;13.72;51.68
40794;BME280;26502;51.886;15.604;2023-04-28T19:13:38;100390.25;;;13.49;52.23
40794;BME280;26502;51.886;15.604;2023-04-28T19:18:45;100391.46;;;13.43;52.67
40794;BME280;26502;51.886;15.604;2023-04-28T19:23:53;100394.38;;;13.26;52.81
40794;BME280;26502;51.886;15.604;2023-04-28T19:29:00;100397.06;;;13.11;53.21
40794;BME280;26502;51.886;15.604;2023-04-28T19:34:07;100400.51;;;12.95;53.60
40794;BME280;26502;51.886;15.604;2023-04-28T19:39:14;100394.54;;;12.93;53.87
40794;BME280;26502;51.886;15.604;2023-04-28T19:44:21;100392.31;;;12.82;53.99
40794;BME280;26502;51.886;15.604;2023-04-28T19:49:28;100396.64;;;12.70;54.15
40794;BME280;26502;51.886;15.604;2023-04-28T19:54:34;100398.65;;;12.61;54.40
40794;BME280;26502;51.886;15.604;2023-04-28T19:59:42;100395.87;;;12.64;54.90
40794;BME280;26502;51.886;15.604;2023-04-28T20:04:49;100398.20;;;12.79;54.96
40794;BME280;26502;51.886;15.604;2023-04-28T20:09:57;100398.61;;;12.89;55.21
40794;BME280;26502;51.886;15.604;2023-04-28T20:15:05;100396.35;;;12.84;55.18
40794;BME280;26502;51.886;15.604;2023-04-28T20:20:13;100395.00;;;12.98;55.46
40794;BME280;26502;51.886;15.604;2023-04-28T20:25:20;100389.64;;;13.06;55.42
40794;BME280;26502;51.886;15.604;2023-04-28T20:30:27;100387.11;;;13.03;55.42
40794;BME280;26502;51.886;15.604;2023-04-28T20:35:33;100386.20;;;12.99;55.52
40794;BME280;26502;51.886;15.604;2023-04-28T20:40:40;100384.48;;;12.98;55.77
40794;BME280;26502;51.886;15.604;2023-04-28T20:45:49;100381.77;;;12.95;55.90
40794;BME280;26502;51.886;15.604;2023-04-28T20:50:56;100379.65;;;12.91;55.96
40794;BME280;26502;51.886;15.604;2023-04-28T20:56:02;100376.30;;;12.83;56.09
40794;BME280;26502;51.886;15.604;2023-04-28T21:01:08;100373.72;;;12.77;56.12
40794;BME280;26502;51.886;15.604;2023-04-28T21:06:15;100372.88;;;12.64;56.11
40794;BME280;26502;51.886;15.604;2023-04-28T21:11:21;100365.87;;;12.57;56.17
40794;BME280;26502;51.886;15.604;2023-04-28T21:16:27;100368.04;;;12.37;56.06
40794;BME280;26502;51.886;15.604;2023-04-28T21:21:33;100367.02;;;12.24;56.21
40794;BME280;26502;51.886;15.604;2023-04-28T21:26:40;100363.14;;;12.27;56.62
40794;BME280;26502;51.886;15.604;2023-04-28T21:31:46;100356.27;;;12.38;56.77
40794;BME280;26502;51.886;15.604;2023-04-28T21:36:52;100351.79;;;12.46;56.76
40794;BME280;26502;51.886;15.604;2023-04-28T21:41:58;100348.54;;;12.43;56.63
40794;BME280;26502;51.886;15.604;2023-04-28T21:47:05;100339.81;;;12.47;56.80
40794;BME280;26502;51.886;15.604;2023-04-28T21:52:13;100343.03;;;12.50;56.95
40794;BME280;26502;51.886;15.604;2023-04-28T21:57:20;100340.89;;;12.46;57.23
40794;BME280;26502;51.886;15.604;2023-04-28T22:02:27;100336.22;;;12.44;57.42
40794;BME280;26502;51.886;15.604;2023-04-28T22:07:34;100334.08;;;12.40;57.45
40794;BME280;26502;51.886;15.604;2023-04-28T22:12:40;100328.08;;;12.34;57.37
40794;BME280;26502;51.886;15.604;2023-04-28T22:17:46;100328.39;;;12.24;57.51
40794;BME280;26502;51.886;15.604;2023-04-28T22:22:52;100329.02;;;12.17;57.62
40794;BME280;26502;51.886;15.604;2023-04-28T22:27:59;100332.75;;;12.13;57.93
40794;BME280;26502;51.886;15.604;2023-04-28T22:33:05;100332.30;;;12.04;57.96
40794;BME280;26502;51.886;15.604;2023-04-28T22:38:12;100328.29;;;11.98;58.32
40794;BME280;26502;51.886;15.604;2023-04-28T22:43:18;100321.50;;;11.98;58.23
40794;BME280;26502;51.886;15.604;2023-04-28T22:48:25;100319.31;;;11.99;58.42
40794;BME280;26502;51.886;15.604;2023-04-28T22:53:31;100319.52;;;11.94;58.55
40794;BME280;26502;51.886;15.604;2023-04-28T22:58:38;100316.73;;;11.93;58.83
40794;BME280;26502;51.886;15.604;2023-04-28T23:03:44;100314.38;;;11.94;58.70
40794;BME280;26502;51.886;15.604;2023-04-28T23:08:51;100314.77;;;11.89;58.94
40794;BME280;26502;51.886;15.604;2023-04-28T23:13:57;100309.25;;;11.85;58.97
40794;BME280;26502;51.886;15.604;2023-04-28T23:19:04;100306.49;;;11.78;59.12
40794;BME280;26502;51.886;15.604;2023-04-28T23:24:11;100297.89;;;11.76;59.28
40794;BME280;26502;51.886;15.604;2023-04-28T23:29:18;100290.98;;;11.72;59.59
40794;BME280;26502;51.886;15.604;2023-04-28T23:34:24;100287.18;;;11.72;59.75
40794;BME280;26502;51.886;15.604;2023-04-28T23:39:32;100283.49;;;11.80;59.77
40794;BME280;26502;51.886;15.604;2023-04-28T23:44:38;100271.11;;;11.78;59.34
40794;BME280;26502;51.886;15.604;2023-04-28T23:49:45;100264.91;;;11.65;59.67
40794;BME280;26502;51.886;15.604;2023-04-28T23:54:51;100253.95;;;11.59;59.94
40794;BME280;26502;51.886;15.604;2023-04-28T23:59:58;100247.35;;;11.56;59.98
